Time;durP1;ratioP1;P1;durP2;ratioP2;P2;SDS_P1;SDS_P2;PMS_P1;PMS_P2;Temp;Humidity;BMP_temperature;BMP_pressure;BME280_temperature;BME280_humidity;BME280_pressure;Samples;Min_cycle;Max_cycle;Signal;HPM_P1;HPM_P2
2022/07/11 00:02:26;;;;;;;10.98;2.90;;;;;;;;;;4992563;28;95416;-71
2022/07/11 00:04:53;;;;;;;10.00;2.88;;;;;;;;;;4995086;28;96086;-71
2022/07/11 00:07:20;;;;;;;10.95;2.65;;;;;;;;;;4993213;28;95345;-73
2022/07/11 00:09:47;;;;;;;11.02;2.67;;;;;;;;;;4993695;28;96803;-73
2022/07/11 00:12:13;;;;;;;8.25;2.67;;;;;;;;;;5007597;28;97543;-73
2022/07/11 00:14:39;;;;;;;7.45;2.42;;;;;;;;;;5007395;28;97184;-72
2022/07/11 00:17:07;;;;;;;8.18;2.60;;;;;;;;;;5012051;28;96792;-72
2022/07/11 00:19:37;;;;;;;11.38;2.70;;;;;;;;;;5008653;28;97360;-72
2022/07/11 00:22:04;;;;;;;10.52;3.47;;;;;;;;;;4992877;28;95464;-72
2022/07/11 00:24:31;;;;;;;9.50;2.60;;;;;;;;;;4992700;28;96804;-72
2022/07/11 00:26:57;;;;;;;14.05;2.47;;;;;;;;;;4996209;28;97689;-72
2022/07/11 00:29:27;;;;;;;12.35;2.95;;;;;;;;;;5005878;28;96670;-72
2022/07/11 00:31:56;;;;;;;8.98;2.30;;;;;;;;;;5010926;28;96563;-72
2022/07/11 00:34:23;;;;;;;11.23;2.72;;;;;;;;;;5010809;28;95856;-72
2022/07/11 00:36:51;;;;;;;8.77;2.42;;;;;;;;;;4992976;28;96432;-71
2022/07/11 00:39:17;;;;;;;8.13;2.17;;;;;;;;;;4990964;28;98190;-73
2022/07/11 00:41:44;;;;;;;7.65;2.35;;;;;;;;;;4992783;28;95409;-73
2022/07/11 00:44:12;;;;;;;9.40;2.63;;;;;;;;;;5007985;28;96155;-71
2022/07/11 00:46:45;;;;;;;8.38;2.67;;;;;;;;;;5015505;28;98287;-72
2022/07/11 00:49:19;;;;;;;13.88;2.72;;;;;;;;;;5006192;28;95326;-72
2022/07/11 00:51:45;;;;;;;9.25;2.63;;;;;;;;;;5010875;28;97569;-72
2022/07/11 00:54:20;;;;;;;10.07;2.72;;;;;;;;;;5012743;28;95298;-71
2022/07/11 00:56:47;;;;;;;9.35;2.75;;;;;;;;;;5012160;28;97442;-72
2022/07/11 00:59:20;;;;;;;9.48;2.60;;;;;;;;;;5002305;28;97401;-72
2022/07/11 01:01:46;;;;;;;8.75;2.50;;;;;;;;;;4991018;28;95453;-71
2022/07/11 01:04:14;;;;;;;11.82;2.40;;;;;;;;;;4991819;28;95049;-72
2022/07/11 01:06:41;;;;;;;8.70;2.53;;;;;;;;;;4991643;28;96220;-71
2022/07/11 01:09:07;;;;;;;9.35;2.92;;;;;;;;;;5005525;28;95446;-71
2022/07/11 01:11:34;;;;;;;11.75;2.65;;;;;;;;;;5003663;28;97288;-71
2022/07/11 01:14:01;;;;;;;12.88;2.75;;;;;;;;;;4999414;28;96213;-73
2022/07/11 01:16:37;;;;;;;7.65;2.15;;;;;;;;;;5011624;28;98903;-73
2022/07/11 01:19:07;;;;;;;9.07;2.20;;;;;;;;;;5015686;27;95702;-72
2022/07/11 01:21:40;;;;;;;10.10;2.63;;;;;;;;;;5002701;28;95416;-72
2022/07/11 01:24:10;;;;;;;9.90;2.38;;;;;;;;;;5012720;28;96938;-72
2022/07/11 01:26:37;;;;;;;11.02;2.55;;;;;;;;;;5009550;28;97932;-72
2022/07/11 01:29:07;;;;;;;7.93;2.75;;;;;;;;;;5012039;28;95313;-72
2022/07/11 01:31:41;;;;;;;8.82;2.38;;;;;;;;;;5012546;28;96471;-72
2022/07/11 01:34:08;;;;;;;5.78;2.03;;;;;;;;;;5011069;28;95241;-72
2022/07/11 01:36:35;;;;;;;7.45;2.70;;;;;;;;;;5009802;28;96769;-72
2022/07/11 01:39:03;;;;;;;7.95;2.42;;;;;;;;;;5014505;28;98503;-72
2022/07/11 01:41:29;;;;;;;8.25;2.47;;;;;;;;;;5014000;28;95316;-72
2022/07/11 01:43:58;;;;;;;5.28;2.20;;;;;;;;;;5015317;28;97028;-73
2022/07/11 01:46:26;;;;;;;8.25;2.17;;;;;;;;;;4996960;28;97321;-72
2022/07/11 01:48:52;;;;;;;9.43;2.38;;;;;;;;;;4995607;28;95254;-72
2022/07/11 01:51:18;;;;;;;7.88;2.25;;;;;;;;;;5009708;28;96609;-71
2022/07/11 01:53:45;;;;;;;7.78;2.30;;;;;;;;;;5015133;28;97069;-72
2022/07/11 01:56:13;;;;;;;9.63;2.20;;;;;;;;;;5013490;28;97056;-72
2022/07/11 01:58:45;;;;;;;6.50;2.30;;;;;;;;;;5011832;28;97373;-72
2022/07/11 02:01:12;;;;;;;5.80;1.98;;;;;;;;;;5013111;28;95571;-73
2022/07/11 02:03:39;;;;;;;6.85;2.28;;;;;;;;;;5014901;28;97371;-72
2022/07/11 02:06:06;;;;;;;5.35;1.80;;;;;;;;;;5012351;28;97403;-72
2022/07/11 02:08:33;;;;;;;7.63;2.30;;;;;;;;;;4994238;28;95524;-71
2022/07/11 02:10:59;;;;;;;9.30;2.10;;;;;;;;;;5011685;28;96030;-72
2022/07/11 02:13:39;;;;;;;5.47;2.08;;;;;;;;;;4994806;28;97573;-73
2022/07/11 02:16:05;;;;;;;7.90;2.28;;;;;;;;;;5030077;27;95369;-74
2022/07/11 02:18:34;;;;;;;4.97;1.73;;;;;;;;;;4994350;28;97361;-73
2022/07/11 02:21:01;;;;;;;4.15;1.67;;;;;;;;;;4994365;28;95323;-73
2022/07/11 02:23:28;;;;;;;6.43;2.30;;;;;;;;;;5012749;28;97002;-73
2022/07/11 02:25:54;;;;;;;6.95;1.83;;;;;;;;;;5012934;28;97710;-73
2022/07/11 02:28:21;;;;;;;6.07;2.17;;;;;;;;;;5012102;28;95925;-73
2022/07/11 02:30:52;;;;;;;5.22;2.05;;;;;;;;;;5013243;28;97363;-73
2022/07/11 02:33:22;;;;;;;7.15;2.10;;;;;;;;;;5009426;28;97379;-73
2022/07/11 02:35:50;;;;;;;9.65;2.38;;;;;;;;;;5008655;28;95363;-73
2022/07/11 02:38:17;;;;;;;5.40;2.25;;;;;;;;;;5016199;28;96907;-73
2022/07/11 02:40:45;;;;;;;4.95;1.77;;;;;;;;;;5014274;28;95404;-72
2022/07/11 02:43:18;;;;;;;7.13;2.10;;;;;;;;;;4997738;28;95880;-73
2022/07/11 02:45:45;;;;;;;6.50;1.80;;;;;;;;;;5013608;28;97445;-73
2022/07/11 02:48:11;;;;;;;5.22;2.00;;;;;;;;;;5014277;28;95232;-73
2022/07/11 02:50:38;;;;;;;7.05;2.30;;;;;;;;;;5002382;28;96599;-73
2022/07/11 02:53:04;;;;;;;8.25;2.22;;;;;;;;;;4993996;28;97104;-73
2022/07/11 02:55:30;;;;;;;5.50;2.13;;;;;;;;;;5009457;28;95453;-73
2022/07/11 02:57:57;;;;;;;4.20;2.10;;;;;;;;;;5008731;28;96775;-72
2022/07/11 03:00:23;;;;;;;6.93;2.10;;;;;;;;;;5016642;28;97322;-73
2022/07/11 03:02:49;;;;;;;8.25;2.00;;;;;;;;;;5014240;28;97087;-73
2022/07/11 03:05:16;;;;;;;7.85;2.10;;;;;;;;;;5011358;28;97447;-73
2022/07/11 03:07:42;;;;;;;8.25;2.28;;;;;;;;;;5013111;28;95241;-73
2022/07/11 03:10:09;;;;;;;4.38;1.92;;;;;;;;;;5008611;28;96538;-73
2022/07/11 03:12:35;;;;;;;4.72;1.73;;;;;;;;;;4997302;28;97691;-72
2022/07/11 03:15:02;;;;;;;8.43;2.50;;;;;;;;;;5001364;28;95205;-72
2022/07/11 03:17:29;;;;;;;7.10;1.80;;;;;;;;;;5013188;28;96807;-72
2022/07/11 03:19:55;;;;;;;6.70;1.83;;;;;;;;;;5016726;28;97669;-72
2022/07/11 03:22:23;;;;;;;7.57;2.10;;;;;;;;;;5010830;28;96733;-72
2022/07/11 03:24:52;;;;;;;4.00;1.60;;;;;;;;;;5007660;28;97392;-72
2022/07/11 03:27:18;;;;;;;6.28;1.90;;;;;;;;;;5013724;28;95228;-72
2022/07/11 03:29:45;;;;;;;7.15;1.70;;;;;;;;;;5012458;28;95410;-73
2022/07/11 03:32:11;;;;;;;8.70;2.35;;;;;;;;;;5000309;28;99415;-73
2022/07/11 03:34:38;;;;;;;8.48;2.40;;;;;;;;;;5002731;28;96502;-72
2022/07/11 03:37:04;;;;;;;5.30;1.75;;;;;;;;;;5002410;28;95194;-72
2022/07/11 03:39:31;;;;;;;5.97;1.95;;;;;;;;;;4992551;28;97354;-73
2022/07/11 03:41:57;;;;;;;5.10;1.98;;;;;;;;;;4996689;28;95326;-73
2022/07/11 03:44:24;;;;;;;6.38;2.00;;;;;;;;;;5004178;28;97282;-73
2022/07/11 03:46:50;;;;;;;6.25;2.15;;;;;;;;;;5012669;28;95316;-73
2022/07/11 03:49:17;;;;;;;11.40;2.38;;;;;;;;;;5008063;28;96980;-72
2022/07/11 03:51:43;;;;;;;5.18;1.92;;;;;;;;;;5007015;28;96267;-72
2022/07/11 03:54:10;;;;;;;8.18;2.67;;;;;;;;;;4992635;28;95283;-73
2022/07/11 03:56:36;;;;;;;6.70;2.30;;;;;;;;;;4993784;28;96873;-72
2022/07/11 03:59:02;;;;;;;7.32;2.13;;;;;;;;;;4992510;28;97341;-73
2022/07/11 04:01:28;;;;;;;7.00;2.35;;;;;;;;;;4992809;28;96311;-73
2022/07/11 04:03:55;;;;;;;11.05;2.47;;;;;;;;;;4996041;28;96852;-73
2022/07/11 04:06:21;;;;;;;6.72;2.63;;;;;;;;;;4991560;28;95355;-72
2022/07/11 04:08:47;;;;;;;7.82;2.70;;;;;;;;;;4993175;28;96812;-74
2022/07/11 04:11:14;;;;;;;6.13;2.45;;;;;;;;;;4991871;28;96333;-74
2022/07/11 04:13:40;;;;;;;14.88;3.65;;;;;;;;;;4992643;28;96198;-74
2022/07/11 04:16:07;;;;;;;9.48;2.80;;;;;;;;;;5006749;28;97193;-74
2022/07/11 04:18:34;;;;;;;8.77;2.60;;;;;;;;;;5010506;28;97226;-73
2022/07/11 04:21:00;;;;;;;11.80;2.80;;;;;;;;;;4996261;28;95777;-73
2022/07/11 04:23:33;;;;;;;6.20;2.78;;;;;;;;;;4992443;28;96780;-74
2022/07/11 04:26:00;;;;;;;4.97;2.53;;;;;;;;;;4996453;28;96442;-73
2022/07/11 04:28:26;;;;;;;10.02;2.67;;;;;;;;;;5012169;28;95724;-74
2022/07/11 04:30:52;;;;;;;8.95;2.63;;;;;;;;;;5011403;28;97392;-73
2022/07/11 04:33:19;;;;;;;6.47;2.58;;;;;;;;;;4994503;28;95885;-73
2022/07/11 04:35:45;;;;;;;5.60;2.55;;;;;;;;;;4993931;28;96858;-73
2022/07/11 04:38:11;;;;;;;6.22;2.85;;;;;;;;;;5010313;28;97119;-74
2022/07/11 04:40:38;;;;;;;4.22;2.38;;;;;;;;;;5011262;28;95060;-73
2022/07/11 04:43:04;;;;;;;5.35;2.40;;;;;;;;;;5011481;28;95835;-73
2022/07/11 04:45:31;;;;;;;6.22;2.78;;;;;;;;;;5008139;28;97371;-73
2022/07/11 04:47:57;;;;;;;5.35;2.47;;;;;;;;;;4995554;28;95182;-73
2022/07/11 04:50:23;;;;;;;5.97;2.47;;;;;;;;;;5002862;28;97349;-73
2022/07/11 04:52:50;;;;;;;5.68;2.38;;;;;;;;;;5012062;28;96255;-73
2022/07/11 04:55:17;;;;;;;3.92;2.40;;;;;;;;;;5001987;28;96739;-73
2022/07/11 04:57:43;;;;;;;7.38;2.58;;;;;;;;;;5011543;28;97442;-73
2022/07/11 05:00:10;;;;;;;5.38;2.35;;;;;;;;;;5002253;28;95357;-74
2022/07/11 05:02:36;;;;;;;4.97;2.30;;;;;;;;;;4993655;28;95866;-72
2022/07/11 20:14:17;;;;;;;5.25;2.50;;;;;;;;;;5068983;27;1298100;-74
2022/07/11 20:16:44;;;;;;;4.93;2.28;;;;;;;;;;5080848;27;97213;-74
2022/07/11 20:19:10;;;;;;;6.57;2.40;;;;;;;;;;5082893;27;95173;-73
2022/07/11 20:21:37;;;;;;;7.75;2.63;;;;;;;;;;5081422;27;97288;-74
2022/07/11 20:24:03;;;;;;;9.25;2.47;;;;;;;;;;5074089;27;96885;-74
2022/07/11 20:26:30;;;;;;;4.45;2.40;;;;;;;;;;5085622;27;95349;-73
2022/07/11 20:28:56;;;;;;;5.50;2.30;;;;;;;;;;5081143;27;98400;-74
2022/07/11 20:31:22;;;;;;;6.70;2.80;;;;;;;;;;5081666;27;97251;-74
2022/07/11 20:33:49;;;;;;;3.92;2.50;;;;;;;;;;5073500;27;95375;-74
2022/07/11 20:36:16;;;;;;;7.53;2.22;;;;;;;;;;5070624;27;97325;-74
2022/07/11 20:38:42;;;;;;;4.38;2.13;;;;;;;;;;5078644;27;95407;-74
2022/07/11 20:41:08;;;;;;;6.78;2.65;;;;;;;;;;5082019;27;96404;-74
2022/07/11 20:43:34;;;;;;;3.42;2.30;;;;;;;;;;5069469;27;96440;-75
2022/07/11 20:46:01;;;;;;;5.10;2.60;;;;;;;;;;5077458;27;95269;-74
2022/07/11 20:48:27;;;;;;;12.10;2.80;;;;;;;;;;5090425;27;97047;-74
2022/07/11 20:50:54;;;;;;;5.13;2.40;;;;;;;;;;5087341;27;97168;-74
2022/07/11 20:53:20;;;;;;;7.72;2.60;;;;;;;;;;5087249;27;95963;-74
2022/07/11 20:55:46;;;;;;;7.07;2.40;;;;;;;;;;5089909;27;95765;-73
2022/07/11 20:58:13;;;;;;;3.45;2.10;;;;;;;;;;5090555;27;95145;-74
2022/07/11 21:00:39;;;;;;;4.13;2.40;;;;;;;;;;5089769;27;96733;-74
2022/07/11 21:03:05;;;;;;;4.07;2.45;;;;;;;;;;5087767;27;96130;-74
2022/07/11 21:05:32;;;;;;;4.60;2.20;;;;;;;;;;5085175;27;95324;-73
2022/07/11 21:07:58;;;;;;;6.10;2.65;;;;;;;;;;5089905;27;96780;-74
2022/07/11 21:10:24;;;;;;;7.60;2.75;;;;;;;;;;5088150;27;97701;-74
2022/07/11 21:12:51;;;;;;;5.32;2.38;;;;;;;;;;5087781;27;95329;-74
2022/07/11 21:15:17;;;;;;;7.07;2.97;;;;;;;;;;5089377;27;96753;-73
2022/07/11 21:17:43;;;;;;;18.35;2.85;;;;;;;;;;5093163;27;97583;-74
2022/07/11 21:20:10;;;;;;;14.27;3.28;;;;;;;;;;5085310;27;96864;-73
2022/07/11 21:22:36;;;;;;;4.38;2.53;;;;;;;;;;5089266;27;97420;-74
2022/07/11 21:25:03;;;;;;;11.07;3.10;;;;;;;;;;5074906;27;96376;-73
2022/07/11 21:27:29;;;;;;;9.02;3.47;;;;;;;;;;5074059;27;96800;-74
2022/07/11 21:29:56;;;;;;;7.35;2.72;;;;;;;;;;5076035;27;96187;-74
2022/07/11 21:32:22;;;;;;;8.95;2.55;;;;;;;;;;5075491;27;95376;-74
2022/07/11 21:34:48;;;;;;;4.32;2.70;;;;;;;;;;5072439;27;97056;-74
2022/07/11 21:37:15;;;;;;;8.75;2.38;;;;;;;;;;5074738;27;97363;-74
2022/07/11 21:39:41;;;;;;;3.85;2.28;;;;;;;;;;5079267;27;95332;-74
2022/07/11 21:42:07;;;;;;;5.80;2.50;;;;;;;;;;5058118;27;96312;-73
2022/07/11 21:44:34;;;;;;;6.47;2.47;;;;;;;;;;5070773;27;95221;-73
2022/07/11 21:47:03;;;;;;;13.05;2.78;;;;;;;;;;5075729;27;97237;-74
2022/07/11 21:49:29;;;;;;;4.50;2.63;;;;;;;;;;5071912;27;97321;-74
2022/07/11 21:51:56;;;;;;;4.78;2.55;;;;;;;;;;5071731;27;95549;-74
2022/07/11 21:54:23;;;;;;;12.38;3.17;;;;;;;;;;5075385;27;97055;-74
2022/07/11 21:56:49;;;;;;;15.43;4.15;;;;;;;;;;5074626;27;97324;-74
2022/07/11 21:59:16;;;;;;;12.50;3.33;;;;;;;;;;5073641;27;95297;-73
2022/07/11 22:01:42;;;;;;;5.13;2.90;;;;;;;;;;5076166;27;97694;-74
2022/07/11 22:04:09;;;;;;;5.18;2.85;;;;;;;;;;5073738;27;95362;-74
2022/07/11 22:06:35;;;;;;;8.27;3.15;;;;;;;;;;5069362;27;96741;-74
2022/07/11 22:09:01;;;;;;;9.68;2.80;;;;;;;;;;5075153;27;97237;-74
2022/07/11 22:11:28;;;;;;;4.28;2.17;;;;;;;;;;5070790;27;95294;-73
2022/07/11 22:13:54;;;;;;;8.38;2.50;;;;;;;;;;5071960;27;95996;-73
2022/07/11 22:16:20;;;;;;;3.97;2.45;;;;;;;;;;5073588;27;97403;-72
2022/07/11 22:18:47;;;;;;;3.53;2.50;;;;;;;;;;5073662;27;95836;-74
2022/07/11 22:21:13;;;;;;;3.10;2.30;;;;;;;;;;5075553;27;96694;-74
2022/07/11 22:23:40;;;;;;;8.98;2.40;;;;;;;;;;5068716;27;95213;-75
2022/07/11 22:26:06;;;;;;;9.73;2.20;;;;;;;;;;5054630;27;97060;-74
2022/07/11 22:28:32;;;;;;;3.35;1.92;;;;;;;;;;5060104;27;97513;-74
2022/07/11 22:30:59;;;;;;;3.50;2.38;;;;;;;;;;5060768;27;95384;-73
2022/07/11 22:33:25;;;;;;;2.97;2.05;;;;;;;;;;5069016;27;96622;-74
2022/07/11 22:35:51;;;;;;;6.57;1.95;;;;;;;;;;5052975;27;97620;-74
2022/07/11 22:38:18;;;;;;;8.77;2.08;;;;;;;;;;5053881;27;95038;-75
2022/07/11 22:40:44;;;;;;;2.97;2.00;;;;;;;;;;5054706;27;96974;-74
2022/07/11 22:43:10;;;;;;;3.63;2.10;;;;;;;;;;5066808;27;97610;-74
2022/07/11 22:45:40;;;;;;;9.70;2.60;;;;;;;;;;5072269;27;96594;-74
2022/07/11 22:48:27;;;;;;;4.05;2.30;;;;;;;;;;5072156;27;96789;-74
2022/07/11 22:50:53;;;;;;;6.70;2.35;;;;;;;;;;5054577;27;95349;-74
2022/07/11 22:53:19;;;;;;;3.70;2.33;;;;;;;;;;5067263;27;96802;-74
2022/07/11 22:55:46;;;;;;;4.43;2.70;;;;;;;;;;5074550;27;97048;-74
2022/07/11 22:58:12;;;;;;;4.35;2.50;;;;;;;;;;5064218;27;95143;-74
2022/07/11 23:00:39;;;;;;;3.80;2.60;;;;;;;;;;5063418;27;96891;-74
2022/07/11 23:03:05;;;;;;;8.55;3.55;;;;;;;;;;5070908;27;97314;-74
2022/07/11 23:05:32;;;;;;;8.48;2.97;;;;;;;;;;5075252;27;95395;-74
2022/07/11 23:07:58;;;;;;;6.68;3.20;;;;;;;;;;5074087;27;97414;-74
2022/07/11 23:10:24;;;;;;;8.25;3.22;;;;;;;;;;5074419;27;95360;-74
2022/07/11 23:12:51;;;;;;;7.85;4.10;;;;;;;;;;5069195;27;96817;-74
2022/07/11 23:15:18;;;;;;;9.60;4.00;;;;;;;;;;5063537;27;97341;-73
2022/07/11 23:17:45;;;;;;;7.28;3.88;;;;;;;;;;5072103;27;95201;-74
2022/07/11 23:20:12;;;;;;;6.18;3.65;;;;;;;;;;5074216;27;96667;-74
2022/07/11 23:22:38;;;;;;;8.57;3.80;;;;;;;;;;5072959;27;97632;-73
2022/07/11 23:25:08;;;;;;;6.25;4.15;;;;;;;;;;5073898;27;95221;-74
2022/07/11 23:27:34;;;;;;;9.05;3.72;;;;;;;;;;5076617;27;96573;-74
2022/07/11 23:30:00;;;;;;;6.32;3.33;;;;;;;;;;5073292;27;95266;-74
2022/07/11 23:32:27;;;;;;;6.95;3.65;;;;;;;;;;5074011;27;96846;-73
2022/07/11 23:34:53;;;;;;;5.88;3.15;;;;;;;;;;5068037;27;98452;-73
2022/07/11 23:37:19;;;;;;;5.80;3.53;;;;;;;;;;5073755;27;95524;-73
2022/07/11 23:39:46;;;;;;;9.10;3.22;;;;;;;;;;5058930;27;97351;-73
2022/07/11 23:42:12;;;;;;;8.98;3.55;;;;;;;;;;5053040;27;97290;-74
2022/07/11 23:44:39;;;;;;;4.97;3.15;;;;;;;;;;5068456;27;95366;-73
2022/07/11 23:47:06;;;;;;;7.38;3.30;;;;;;;;;;5073843;27;96758;-74
2022/07/11 23:49:32;;;;;;;5.80;3.53;;;;;;;;;;5072206;27;97531;-74
2022/07/11 23:51:58;;;;;;;4.57;3.08;;;;;;;;;;5073469;27;96800;-73
2022/07/11 23:54:24;;;;;;;5.50;3.42;;;;;;;;;;5060667;27;97652;-74
2022/07/11 23:56:51;;;;;;;5.78;3.10;;;;;;;;;;5053115;27;95237;-74
2022/07/11 23:59:17;;;;;;;6.82;3.15;;;;;;;;;;5052976;27;96807;-74
